Darstellungsparameter: Aktuell verwendete Einstellungen:
Skalierung der Graphiken ... ?
xyx+y,   Skalierungsfaktor:      Skalierung: Modus: x, Faktor: 1
Darstellungszeitraum ... ?
Vom - - bis: - -   Zeitraum: 27.12.2010 - 29.12.2010
Min/Max/Avg-Anzeige ... ?
Zeige MMA aktuell
Zeige MMA Monat
Zeige MMA alles
Zeige --A aktuell
Zeige --A Monat
Zeige --A alles
Keine MMA-Anzeige
MMA:
Average (ber die Originaldaten)
MMA-Basis: 27.12.2010 - 29.12.2010
Quicknavigation für Darstellung... ?
Tage:      1T, 2T, 3T, 5T -1T -2T -3T -5T +1T +2T +3T +5T
Wochen: 1W, 2W, 3W -1W -2W -3W +1W +2W +3W
Monate: 1M, 3M, 6M -1M -3M -6M +1M +3M +6M
Jahre:    1J, 3J, 5J, 10J -1J -3J -5J -10J +1J +3J +5J +10J
Nutze für die Darstellung ... ?
Originaldaten oder Mittelwerte auf ...
Stundenbasis Tagesbasis Wochenbasis
Monatsbasis Jahresbasis      Datenbasis: Original-Daten
Darstellen als:
Statistik (Auto) Statistik J:M      Darstellung:
Zur Graphik,    zurück zur Übersicht aller Sensoren.
 
Tabellarische Datenbersicht: ?
 
Sensor: Nr:Datum:Temp:Abs-Feuchte:Windchill:Wind:
Aussen-T/F 1 27-12-2010 00:10:04 -2.7 C 3.17 g/m*3 -2.7 C 0 km/h
2 27-12-2010 00:22:04 -2.8 C 3.19 g/m*3 -2.8 C 0 km/h
3 27-12-2010 00:34:04 -2.7 C 3.21 g/m*3 -2.7 C 0 km/h
4 27-12-2010 00:46:04 -2.6 C 3.23 g/m*3 -2.6 C 0 km/h
5 27-12-2010 00:58:05 -2.4 C 3.28 g/m*3 -2.4 C 0 km/h
6 27-12-2010 01:10:05 -2.3 C 3.26 g/m*3 -2.3 C 0 km/h
7 27-12-2010 01:22:05 -1.9 C 3.35 g/m*3 -1.9 C 0 km/h
8 27-12-2010 01:34:05 -1.9 C 3.31 g/m*3 -1.9 C 0 km/h
9 27-12-2010 01:46:05 -1.8 C 3.33 g/m*3 -1.8 C 0 km/h
10 27-12-2010 01:58:05 -1.7 C 3.31 g/m*3 -1.7 C 0 km/h
11 27-12-2010 02:10:05 -1.6 C 3.34 g/m*3 -1.6 C 0 km/h
12 27-12-2010 02:22:05 -1.5 C 3.36 g/m*3 -1.5 C 0 km/h
13 27-12-2010 02:34:05 -1.6 C 3.34 g/m*3 -1.6 C 0 km/h
14 27-12-2010 02:46:05 -1.5 C 3.36 g/m*3 -1.5 C 0 km/h
15 27-12-2010 02:58:05 -1.8 C 3.33 g/m*3 -1.8 C 0 km/h
16 27-12-2010 03:10:05 -1.5 C 3.41 g/m*3 -1.5 C 0 km/h
17 27-12-2010 03:22:05 -1.4 C 3.43 g/m*3 -1.4 C 0 km/h
18 27-12-2010 03:34:05 -1.4 C 3.39 g/m*3 -1.4 C 0 km/h
19 27-12-2010 03:46:05 -1.3 C 3.41 g/m*3 -1.3 C 0 km/h
20 27-12-2010 03:58:05 -1.3 C 3.41 g/m*3 -1.3 C 0 km/h
21 27-12-2010 04:10:05 -1.3 C 3.36 g/m*3 -1.3 C 0 km/h
22 27-12-2010 04:22:05 -1.3 C 3.36 g/m*3 -1.3 C 0 km/h
23 27-12-2010 04:34:05 -1.3 C 3.36 g/m*3 -1.3 C 0 km/h
24 27-12-2010 04:46:05 -1.3 C 3.36 g/m*3 -1.3 C 0 km/h
25 27-12-2010 04:58:05 -1.3 C 3.36 g/m*3 -1.3 C 0 km/h
Sensor: Nr:Datum:Temp:Abs-Feuchte:Windchill:Wind:
Aussen-T/F 26 27-12-2010 05:10:06 -1.3 C 3.36 g/m*3 -1.3 C 0 km/h
27 27-12-2010 05:22:06 -1.3 C 3.36 g/m*3 -1.3 C 0 km/h
28 27-12-2010 05:34:06 -1.3 C 3.36 g/m*3 -1.3 C 0 km/h
29 27-12-2010 05:46:06 -1.3 C 3.36 g/m*3 -1.3 C 0 km/h
30 27-12-2010 05:58:06 -1.4 C 3.39 g/m*3 -1.4 C 0 km/h
31 27-12-2010 06:10:06 -1.4 C 3.39 g/m*3 -1.4 C 0 km/h
32 27-12-2010 06:22:06 -1.4 C 3.39 g/m*3 -1.4 C 0 km/h
33 27-12-2010 06:34:06 -1.5 C 3.36 g/m*3 -1.5 C 0 km/h
34 27-12-2010 06:46:06 -1.4 C 3.39 g/m*3 -1.4 C 0 km/h
35 27-12-2010 06:58:06 -1.5 C 3.36 g/m*3 -1.5 C 0 km/h
36 27-12-2010 07:10:06 -1.6 C 3.34 g/m*3 -1.6 C 0 km/h
37 27-12-2010 07:22:06 -1.5 C 3.36 g/m*3 -1.5 C 0 km/h
38 27-12-2010 07:34:06 -1.5 C 3.36 g/m*3 -1.5 C 0 km/h
39 27-12-2010 07:46:06 -1.7 C 3.31 g/m*3 -1.7 C 0 km/h
40 27-12-2010 07:58:06 -1.8 C 3.29 g/m*3 -1.8 C 0 km/h
41 27-12-2010 08:10:06 -1.8 C 3.33 g/m*3 -1.8 C 0 km/h
42 27-12-2010 08:22:06 -1.8 C 3.29 g/m*3 -1.8 C 0 km/h
43 27-12-2010 08:34:06 -1.9 C 3.27 g/m*3 -1.9 C 0 km/h
44 27-12-2010 08:46:02 -1.9 C 3.27 g/m*3 -1.9 C 0 km/h
45 27-12-2010 08:58:02 -1.9 C 3.27 g/m*3 -1.9 C 0 km/h
46 27-12-2010 09:10:02 -1.8 C 3.25 g/m*3 -1.8 C 0 km/h
47 27-12-2010 09:22:02 -1.8 C 3.25 g/m*3 -1.8 C 0 km/h
48 27-12-2010 09:34:02 -1.8 C 3.25 g/m*3 -1.8 C 0 km/h
49 27-12-2010 09:46:02 -1.8 C 3.25 g/m*3 -1.8 C 0 km/h
50 27-12-2010 09:58:02 -1.7 C 3.23 g/m*3 -1.7 C 0 km/h
Sensor: Nr:Datum:Temp:Abs-Feuchte:Windchill:Wind:
Aussen-T/F 51 27-12-2010 10:10:02 -1.6 C 3.25 g/m*3 -1.6 C 0 km/h
52 27-12-2010 10:22:03 -1.4 C 3.3 g/m*3 -1.4 C 0 km/h
53 27-12-2010 10:34:02 -1.4 C 3.3 g/m*3 -1.4 C 0 km/h
54 27-12-2010 10:46:02 -1.4 C 3.25 g/m*3 -1.4 C 0 km/h
55 27-12-2010 10:58:02 -1.3 C 3.28 g/m*3 -1.3 C 0 km/h
56 27-12-2010 11:10:02 -1.2 C 3.3 g/m*3 -1.2 C 0 km/h
57 27-12-2010 11:22:02 -1.2 C 3.25 g/m*3 -1.2 C 0 km/h
58 27-12-2010 11:34:02 -1.2 C 3.25 g/m*3 -1.2 C 0 km/h
59 27-12-2010 11:46:02 -1 C 3.3 g/m*3 -1 C 0 km/h
60 27-12-2010 11:58:02 -1.2 C 3.21 g/m*3 -1.2 C 0 km/h
61 27-12-2010 12:10:02 -0.8 C 3.25 g/m*3 -0.8 C 0 km/h
62 27-12-2010 12:22:02 -1 C 3.21 g/m*3 -1 C 0 km/h
63 27-12-2010 12:34:01 -1.1 C 3.19 g/m*3 -1.1 C 0 km/h
64 27-12-2010 12:46:02 -1.1 C 3.23 g/m*3 -1.1 C 0 km/h
65 27-12-2010 12:58:02 -1.1 C 3.23 g/m*3 -1.1 C 0 km/h
66 27-12-2010 13:10:01 -1.2 C 3.25 g/m*3 -1.2 C 0 km/h
67 27-12-2010 13:22:02 -0.9 C 3.32 g/m*3 -0.9 C 0 km/h
68 27-12-2010 13:34:02 -1 C 3.25 g/m*3 -1 C 0 km/h
69 27-12-2010 13:46:02 -0.8 C 3.3 g/m*3 -0.8 C 0 km/h
70 27-12-2010 13:58:02 -0.5 C 3.32 g/m*3 -0.5 C 0 km/h
71 27-12-2010 14:10:03 -0.9 C 3.23 g/m*3 -0.9 C 0 km/h
72 27-12-2010 14:22:02 -1.1 C 3.23 g/m*3 -1.1 C 0 km/h
73 27-12-2010 14:34:02 -1 C 3.3 g/m*3 -1 C 0 km/h
74 27-12-2010 14:46:01 -1.1 C 3.28 g/m*3 -1.1 C 0 km/h
75 27-12-2010 14:58:01 -1.1 C 3.32 g/m*3 -1.1 C 0 km/h
Sensor: Nr:Datum:Temp:Abs-Feuchte:Windchill:Wind:
Aussen-T/F 76 27-12-2010 15:10:02 -1.2 C 3.3 g/m*3 -1.2 C 0 km/h
77 27-12-2010 15:22:01 -1.3 C 3.32 g/m*3 -1.3 C 0 km/h
78 27-12-2010 15:34:01 -1.3 C 3.36 g/m*3 -1.3 C 0 km/h
79 27-12-2010 15:46:01 -1.2 C 3.34 g/m*3 -1.2 C 0 km/h
80 27-12-2010 15:58:01 -1.5 C 3.32 g/m*3 -1.5 C 0 km/h
81 27-12-2010 16:10:02 -1.9 C 3.23 g/m*3 -1.9 C 0 km/h
82 27-12-2010 16:22:01 -2.1 C 3.26 g/m*3 -2.1 C 0 km/h
83 27-12-2010 16:34:01 -2.3 C 3.26 g/m*3 -2.3 C 0 km/h
84 27-12-2010 16:46:01 -2.5 C 3.26 g/m*3 -2.5 C 0 km/h
85 27-12-2010 16:58:01 -2.7 C 3.25 g/m*3 -2.7 C 0 km/h
86 27-12-2010 17:10:02 -3 C 3.22 g/m*3 -3 C 0 km/h
87 27-12-2010 17:22:02 -3.3 C 3.19 g/m*3 -3.3 C 0 km/h
88 27-12-2010 17:34:01 -3.3 C 3.23 g/m*3 -3.3 C 0 km/h
89 27-12-2010 17:46:02 -3.1 C 3.32 g/m*3 -3.1 C 0 km/h
90 27-12-2010 17:58:02 -3.1 C 3.32 g/m*3 -3.1 C 0 km/h
91 27-12-2010 18:10:01 -3.1 C 3.35 g/m*3 -3.1 C 0 km/h
92 27-12-2010 18:22:02 -3.2 C 3.33 g/m*3 -3.2 C 0 km/h
93 27-12-2010 18:34:01 -3.2 C 3.33 g/m*3 -3.2 C 0 km/h
94 27-12-2010 18:46:02 -3.2 C 3.33 g/m*3 -3.2 C 0 km/h
95 27-12-2010 18:58:02 -3.2 C 3.33 g/m*3 -3.2 C 0 km/h
96 27-12-2010 19:10:02 -3.4 C 3.28 g/m*3 -3.4 C 0 km/h
97 27-12-2010 19:22:02 -3.6 C 3.24 g/m*3 -3.6 C 0 km/h
98 27-12-2010 19:34:03 -3.7 C 3.21 g/m*3 -3.7 C 0 km/h
99 27-12-2010 19:46:02 -4 C 3.15 g/m*3 -4 C 0 km/h
100 27-12-2010 19:58:02 -4 C 3.15 g/m*3 -4 C 0 km/h
Sensor: Nr:Datum:Temp:Abs-Feuchte:Windchill:Wind:
Aussen-T/F 101 27-12-2010 20:10:01 -4.1 C 3.16 g/m*3 -4.1 C 0 km/h
102 27-12-2010 20:22:02 -4.1 C 3.16 g/m*3 -4.1 C 0 km/h
103 27-12-2010 20:34:02 -4.4 C 3.09 g/m*3 -4.4 C 0 km/h
104 27-12-2010 20:46:02 -4.3 C 3.12 g/m*3 -4.3 C 0 km/h
105 27-12-2010 20:58:02 -4.6 C 3.05 g/m*3 -4.6 C 0 km/h
106 27-12-2010 21:10:02 -4.6 C 3.05 g/m*3 -4.6 C 0 km/h
107 27-12-2010 21:22:02 -4.5 C 3.07 g/m*3 -4.5 C 0 km/h
108 27-12-2010 21:34:02 -4.5 C 3.07 g/m*3 -4.5 C 0 km/h
109 27-12-2010 21:46:02 -4.5 C 3.07 g/m*3 -4.5 C 0 km/h
110 27-12-2010 21:58:02 -3.9 C 3.24 g/m*3 -3.9 C 0 km/h
111 27-12-2010 22:10:02 -3.8 C 3.27 g/m*3 -3.8 C 0 km/h
112 27-12-2010 22:23:02 -4.5 C 3.07 g/m*3 -4.5 C 0 km/h
113 27-12-2010 22:35:02 -4.5 C 3.07 g/m*3 -4.5 C 0 km/h
114 27-12-2010 22:47:02 -3.9 C 3.21 g/m*3 -3.9 C 0 km/h
115 27-12-2010 22:59:02 -4 C 3.18 g/m*3 -4 C 0 km/h
116 27-12-2010 23:11:03 -3.9 C 3.24 g/m*3 -3.9 C 0 km/h
117 27-12-2010 23:23:03 -3.9 C 3.21 g/m*3 -3.9 C 0 km/h
118 27-12-2010 23:35:03 -4.3 C 3.12 g/m*3 -4.3 C 0 km/h
119 27-12-2010 23:47:03 -4.7 C 3.03 g/m*3 -4.7 C 0 km/h
120 27-12-2010 23:59:03 -4.9 C 2.95 g/m*3 -4.9 C 0 km/h
121 28-12-2010 00:11:03 -4.7 C 3.03 g/m*3 -4.7 C 0 km/h
122 28-12-2010 00:23:03 -4.5 C 3.07 g/m*3 -4.5 C 0 km/h
123 28-12-2010 00:35:03 -4.5 C 3.07 g/m*3 -4.5 C 0 km/h
124 28-12-2010 00:47:03 -4.3 C 3.12 g/m*3 -4.3 C 0 km/h
125 28-12-2010 00:59:03 -4.3 C 3.12 g/m*3 -4.3 C 0 km/h
Sensor: Nr:Datum:Temp:Abs-Feuchte:Windchill:Wind:
Aussen-T/F 126 28-12-2010 01:11:03 -4.1 C 3.16 g/m*3 -4.1 C 0 km/h
127 28-12-2010 01:23:03 -4.4 C 3.09 g/m*3 -4.4 C 0 km/h
128 28-12-2010 01:35:03 -4.4 C 3.09 g/m*3 -4.4 C 0 km/h
129 28-12-2010 01:47:03 -4.3 C 3.12 g/m*3 -4.3 C 0 km/h
130 28-12-2010 01:59:03 -4.3 C 3.12 g/m*3 -4.3 C 0 km/h
131 28-12-2010 02:11:03 -4.1 C 3.16 g/m*3 -4.1 C 0 km/h
132 28-12-2010 02:23:03 -4 C 3.18 g/m*3 -4 C 0 km/h
133 28-12-2010 02:35:03 -4.1 C 3.16 g/m*3 -4.1 C 0 km/h
134 28-12-2010 02:47:03 -4.2 C 3.14 g/m*3 -4.2 C 0 km/h
135 28-12-2010 02:59:03 -4.4 C 3.09 g/m*3 -4.4 C 0 km/h
136 28-12-2010 03:11:03 -4.2 C 3.14 g/m*3 -4.2 C 0 km/h
137 28-12-2010 03:23:04 -4.2 C 3.14 g/m*3 -4.2 C 0 km/h
138 28-12-2010 03:35:04 -4.5 C 3.04 g/m*3 -4.5 C 0 km/h
139 28-12-2010 03:47:04 -4.5 C 3.04 g/m*3 -4.5 C 0 km/h
140 28-12-2010 03:59:04 -4.4 C 3.06 g/m*3 -4.4 C 0 km/h
141 28-12-2010 04:11:04 -4.2 C 3.14 g/m*3 -4.2 C 0 km/h
142 28-12-2010 04:23:04 -4.2 C 3.14 g/m*3 -4.2 C 0 km/h
143 28-12-2010 04:35:04 -4.2 C 3.14 g/m*3 -4.2 C 0 km/h
144 28-12-2010 04:47:04 -4.2 C 3.14 g/m*3 -4.2 C 0 km/h
145 28-12-2010 04:59:04 -4 C 3.18 g/m*3 -4 C 0 km/h
146 28-12-2010 05:11:04 -3.9 C 3.21 g/m*3 -3.9 C 0 km/h
147 28-12-2010 05:23:04 -3.8 C 3.23 g/m*3 -3.8 C 0 km/h
148 28-12-2010 05:35:04 -3.8 C 3.23 g/m*3 -3.8 C 0 km/h
149 28-12-2010 05:47:04 -3.6 C 3.27 g/m*3 -3.6 C 0 km/h
150 28-12-2010 05:59:04 -3.8 C 3.23 g/m*3 -3.8 C 0 km/h
Sensor: Nr:Datum:Temp:Abs-Feuchte:Windchill:Wind:
Aussen-T/F 151 28-12-2010 06:11:04 -3.6 C 3.27 g/m*3 -3.6 C 0 km/h
152 28-12-2010 06:23:04 -3.7 C 3.25 g/m*3 -3.7 C 0 km/h
153 28-12-2010 06:35:04 -3.8 C 3.23 g/m*3 -3.8 C 0 km/h
154 28-12-2010 06:47:04 -3.8 C 3.23 g/m*3 -3.8 C 0 km/h
155 28-12-2010 06:59:04 -3.8 C 3.23 g/m*3 -3.8 C 0 km/h
156 28-12-2010 07:11:04 -3.7 C 3.25 g/m*3 -3.7 C 0 km/h
157 28-12-2010 07:23:05 -3.7 C 3.21 g/m*3 -3.7 C 0 km/h
158 28-12-2010 07:35:05 -3.7 C 3.21 g/m*3 -3.7 C 0 km/h
159 28-12-2010 07:47:05 -3.7 C 3.21 g/m*3 -3.7 C 0 km/h
160 28-12-2010 07:59:05 -3.8 C 3.19 g/m*3 -3.8 C 0 km/h
161 28-12-2010 08:11:05 -3.7 C 3.21 g/m*3 -3.7 C 0 km/h
162 28-12-2010 08:23:05 -3.7 C 3.21 g/m*3 -3.7 C 0 km/h
163 28-12-2010 08:35:05 -3.6 C 3.24 g/m*3 -3.6 C 0 km/h
164 28-12-2010 08:47:05 -3.5 C 3.26 g/m*3 -3.5 C 0 km/h
165 28-12-2010 08:59:05 -3.3 C 3.31 g/m*3 -3.3 C 0 km/h
166 28-12-2010 09:11:05 -3.1 C 3.35 g/m*3 -3.1 C 0 km/h
167 28-12-2010 09:23:05 -3 C 3.38 g/m*3 -3 C 0 km/h
168 28-12-2010 09:35:05 -2.7 C 3.45 g/m*3 -2.7 C 0 km/h
169 28-12-2010 09:47:05 -2.5 C 3.46 g/m*3 -2.5 C 0 km/h
170 28-12-2010 09:59:05 -2.1 C 3.56 g/m*3 -2.1 C 0 km/h
171 28-12-2010 10:11:02 -1.7 C 3.62 g/m*3 -1.7 C 0 km/h
172 28-12-2010 10:23:02 -1.4 C 3.65 g/m*3 -1.4 C 0 km/h
173 28-12-2010 10:35:02 -1.1 C 3.68 g/m*3 -1.1 C 0 km/h
174 28-12-2010 10:47:01 -0.7 C 3.6 g/m*3 -0.7 C 0 km/h
175 28-12-2010 10:59:01 -0.7 C 3.51 g/m*3 -0.7 C 0 km/h
Sensor: Nr:Datum:Temp:Abs-Feuchte:Windchill:Wind:
Aussen-T/F 176 28-12-2010 11:11:02 -0.8 C 3.44 g/m*3 -0.8 C 0 km/h
177 28-12-2010 11:23:01 -0.7 C 3.51 g/m*3 -0.7 C 0 km/h
178 28-12-2010 11:35:01 -0.6 C 3.49 g/m*3 -0.6 C 0 km/h
179 28-12-2010 11:47:01 -0.3 C 3.46 g/m*3 -0.3 C 0 km/h
180 28-12-2010 11:59:01 -0.3 C 3.42 g/m*3 -0.3 C 0 km/h
181 28-12-2010 12:11:02 0.1 C 3.46 g/m*3 0.1 C 0 km/h
182 28-12-2010 12:23:01 0.2 C 3.39 g/m*3 0.2 C 0 km/h
183 28-12-2010 12:35:02 0.5 C 3.26 g/m*3 0.5 C 0 km/h
184 28-12-2010 12:47:01 0.3 C 3.22 g/m*3 0.3 C 0 km/h
185 28-12-2010 12:59:01 0.4 C 3.24 g/m*3 0.4 C 0 km/h
186 28-12-2010 13:11:02 0.2 C 3.24 g/m*3 0.2 C 0 km/h
187 28-12-2010 13:23:01 0.5 C 3.36 g/m*3 0.5 C 0 km/h
188 28-12-2010 13:35:01 0.7 C 3.41 g/m*3 0.7 C 0 km/h
189 28-12-2010 13:47:01 0.4 C 3.34 g/m*3 0.4 C 0 km/h
190 28-12-2010 13:59:01 0 C 3.25 g/m*3 0 C 0 km/h
191 28-12-2010 14:11:01 0.3 C 3.36 g/m*3 0.3 C 0 km/h
192 28-12-2010 14:23:02 0 C 3.29 g/m*3 0 C 0 km/h
193 28-12-2010 14:35:01 -0.1 C 3.27 g/m*3 -0.1 C 0 km/h
194 28-12-2010 14:47:02 0 C 3.34 g/m*3 0 C 0 km/h
195 28-12-2010 14:59:02 -0.2 C 3.39 g/m*3 -0.2 C 0 km/h
196 28-12-2010 15:11:01 -0.4 C 3.39 g/m*3 -0.4 C 0 km/h
197 28-12-2010 15:23:01 -0.5 C 3.42 g/m*3 -0.5 C 0 km/h
198 28-12-2010 15:35:01 -0.6 C 3.44 g/m*3 -0.6 C 0 km/h
199 28-12-2010 15:47:02 -0.6 C 3.44 g/m*3 -0.6 C 0 km/h
200 28-12-2010 15:59:02 -0.6 C 3.39 g/m*3 -0.6 C 0 km/h
Sensor: Nr:Datum:Temp:Abs-Feuchte:Windchill:Wind:
Aussen-T/F 201 28-12-2010 16:11:01 -0.6 C 3.39 g/m*3 -0.6 C 0 km/h
202 28-12-2010 16:23:02 -0.7 C 3.37 g/m*3 -0.7 C 0 km/h
203 28-12-2010 16:35:02 -0.7 C 3.37 g/m*3 -0.7 C 0 km/h
204 28-12-2010 16:47:01 -0.7 C 3.42 g/m*3 -0.7 C 0 km/h
205 28-12-2010 16:59:01 -0.7 C 3.42 g/m*3 -0.7 C 0 km/h
206 28-12-2010 17:11:02 -0.7 C 3.42 g/m*3 -0.7 C 0 km/h
207 28-12-2010 17:23:01 -0.7 C 3.42 g/m*3 -0.7 C 0 km/h
208 28-12-2010 17:35:02 -0.7 C 3.42 g/m*3 -0.7 C 0 km/h
209 28-12-2010 17:47:02 -0.7 C 3.42 g/m*3 -0.7 C 0 km/h
210 28-12-2010 17:59:02 -0.7 C 3.42 g/m*3 -0.7 C 0 km/h
211 28-12-2010 18:11:02 -0.8 C 3.44 g/m*3 -0.8 C 0 km/h
212 28-12-2010 18:23:01 -0.8 C 3.44 g/m*3 -0.8 C 0 km/h
213 28-12-2010 18:35:02 -0.8 C 3.35 g/m*3 -0.8 C 0 km/h
214 28-12-2010 18:47:01 -0.9 C 3.32 g/m*3 -0.9 C 0 km/h
215 28-12-2010 18:59:01 -1.1 C 3.37 g/m*3 -1.1 C 0 km/h
216 28-12-2010 19:11:02 -1.1 C 3.41 g/m*3 -1.1 C 0 km/h
217 28-12-2010 19:23:01 -1.1 C 3.41 g/m*3 -1.1 C 0 km/h
218 28-12-2010 19:35:02 -1.2 C 3.43 g/m*3 -1.2 C 0 km/h
219 28-12-2010 19:47:01 -1.2 C 3.52 g/m*3 -1.2 C 0 km/h
220 28-12-2010 19:59:01 -1.4 C 3.47 g/m*3 -1.4 C 0 km/h
221 28-12-2010 20:11:02 -1.2 C 3.48 g/m*3 -1.2 C 0 km/h
222 28-12-2010 20:23:02 -1.2 C 3.48 g/m*3 -1.2 C 0 km/h
223 28-12-2010 20:35:01 -1.4 C 3.43 g/m*3 -1.4 C 0 km/h
224 28-12-2010 20:47:02 -1.5 C 3.41 g/m*3 -1.5 C 0 km/h
225 28-12-2010 20:59:02 -1.7 C 3.36 g/m*3 -1.7 C 0 km/h
Sensor: Nr:Datum:Temp:Abs-Feuchte:Windchill:Wind:
Aussen-T/F 226 28-12-2010 21:11:01 -1.9 C 3.31 g/m*3 -1.9 C 0 km/h
227 28-12-2010 21:23:02 -2 C 3.33 g/m*3 -2 C 0 km/h
228 28-12-2010 21:35:01 -2.1 C 3.35 g/m*3 -2.1 C 0 km/h
229 28-12-2010 21:47:02 -1.8 C 3.46 g/m*3 -1.8 C 0 km/h
230 28-12-2010 21:59:02 -1.5 C 3.54 g/m*3 -1.5 C 0 km/h
231 28-12-2010 22:11:02 -1.2 C 3.61 g/m*3 -1.2 C 0 km/h
232 28-12-2010 22:24:03 -1.3 C 3.59 g/m*3 -1.3 C 0 km/h
233 28-12-2010 22:36:03 -1.3 C 3.59 g/m*3 -1.3 C 0 km/h
234 28-12-2010 22:48:03 -1.3 C 3.59 g/m*3 -1.3 C 0 km/h
235 28-12-2010 23:00:03 -1.3 C 3.54 g/m*3 -1.3 C 0 km/h
236 28-12-2010 23:12:03 -1.3 C 3.59 g/m*3 -1.3 C 0 km/h
237 28-12-2010 23:24:03 -1.3 C 3.59 g/m*3 -1.3 C 0 km/h
238 28-12-2010 23:36:03 -1.3 C 3.59 g/m*3 -1.3 C 0 km/h
239 28-12-2010 23:48:03 -1.2 C 3.61 g/m*3 -1.2 C 0 km/h
240 29-12-2010 00:00:03 -1.3 C 3.54 g/m*3 -1.3 C 0 km/h
241 29-12-2010 00:12:03 -1.4 C 3.52 g/m*3 -1.4 C 0 km/h
242 29-12-2010 00:24:03 -1.3 C 3.59 g/m*3 -1.3 C 0 km/h
243 29-12-2010 00:36:03 -1.3 C 3.59 g/m*3 -1.3 C 0 km/h
244 29-12-2010 00:48:03 -1.3 C 3.59 g/m*3 -1.3 C 0 km/h
245 29-12-2010 01:00:03 -1.3 C 3.59 g/m*3 -1.3 C 0 km/h
246 29-12-2010 01:12:03 -1.3 C 3.63 g/m*3 -1.3 C 0 km/h
247 29-12-2010 01:24:03 -1.3 C 3.63 g/m*3 -1.3 C 0 km/h
248 29-12-2010 01:36:03 -1.3 C 3.63 g/m*3 -1.3 C 0 km/h
249 29-12-2010 01:48:03 -1.3 C 3.63 g/m*3 -1.3 C 0 km/h
250 29-12-2010 02:00:03 -1.3 C 3.63 g/m*3 -1.3 C 0 km/h
Sensor: Nr:Datum:Temp:Abs-Feuchte:Windchill:Wind:
Aussen-T/F 251 29-12-2010 02:12:04 -1.3 C 3.63 g/m*3 -1.3 C 0 km/h
252 29-12-2010 02:24:04 -1.3 C 3.63 g/m*3 -1.3 C 0 km/h
253 29-12-2010 02:36:04 -1.3 C 3.63 g/m*3 -1.3 C 0 km/h
254 29-12-2010 02:48:04 -1.3 C 3.67 g/m*3 -1.3 C 0 km/h
255 29-12-2010 03:00:04 -1.2 C 3.66 g/m*3 -1.2 C 0 km/h
256 29-12-2010 03:12:04 -1.3 C 3.63 g/m*3 -1.3 C 0 km/h
257 29-12-2010 03:24:04 -1.2 C 3.7 g/m*3 -1.2 C 0 km/h
258 29-12-2010 03:36:04 -1.2 C 3.7 g/m*3 -1.2 C 0 km/h
259 29-12-2010 03:48:04 -1.2 C 3.7 g/m*3 -1.2 C 0 km/h
260 29-12-2010 04:00:04 -1.2 C 3.7 g/m*3 -1.2 C 0 km/h
261 29-12-2010 04:12:04 -1.2 C 3.7 g/m*3 -1.2 C 0 km/h
262 29-12-2010 04:24:04 -1.3 C 3.63 g/m*3 -1.3 C 0 km/h
263 29-12-2010 04:36:04 -1.3 C 3.63 g/m*3 -1.3 C 0 km/h
264 29-12-2010 04:48:04 -1.4 C 3.65 g/m*3 -1.4 C 0 km/h
265 29-12-2010 05:00:04 -1.4 C 3.65 g/m*3 -1.4 C 0 km/h
266 29-12-2010 05:12:04 -1.3 C 3.67 g/m*3 -1.3 C 0 km/h
267 29-12-2010 05:24:04 -1.3 C 3.67 g/m*3 -1.3 C 0 km/h
268 29-12-2010 05:36:04 -1.3 C 3.67 g/m*3 -1.3 C 0 km/h
269 29-12-2010 05:48:04 -1.2 C 3.7 g/m*3 -1.2 C 0 km/h
270 29-12-2010 06:00:04 -1.2 C 3.7 g/m*3 -1.2 C 0 km/h
271 29-12-2010 06:12:05 -1.3 C 3.67 g/m*3 -1.3 C 0 km/h
272 29-12-2010 06:24:05 -1.2 C 3.74 g/m*3 -1.2 C 0 km/h
273 29-12-2010 06:36:05 -1.2 C 3.74 g/m*3 -1.2 C 0 km/h
274 29-12-2010 06:48:05 -1.1 C 3.77 g/m*3 -1.1 C 0 km/h
275 29-12-2010 07:00:05 -1.1 C 3.77 g/m*3 -1.1 C 0 km/h
Sensor: Nr:Datum:Temp:Abs-Feuchte:Windchill:Wind:
Aussen-T/F 276 29-12-2010 07:12:05 -1.1 C 3.77 g/m*3 -1.1 C 0 km/h
277 29-12-2010 07:24:05 -1.1 C 3.77 g/m*3 -1.1 C 0 km/h
278 29-12-2010 07:36:05 -1.1 C 3.82 g/m*3 -1.1 C 0 km/h
279 29-12-2010 07:48:01 -1.1 C 3.82 g/m*3 -1.1 C 0 km/h
280 29-12-2010 08:00:01 -1.1 C 3.82 g/m*3 -1.1 C 0 km/h
281 29-12-2010 08:12:02 -1.1 C 3.82 g/m*3 -1.1 C 0 km/h
282 29-12-2010 08:24:01 -1.2 C 3.79 g/m*3 -1.2 C 0 km/h
283 29-12-2010 08:36:01 -1.1 C 3.86 g/m*3 -1.1 C 0 km/h
284 29-12-2010 08:48:01 -1 C 3.89 g/m*3 -1 C 0 km/h
285 29-12-2010 09:00:01 -0.9 C 3.91 g/m*3 -0.9 C 0 km/h
286 29-12-2010 09:12:02 -0.9 C 3.87 g/m*3 -0.9 C 0 km/h
287 29-12-2010 09:24:02 -0.7 C 3.92 g/m*3 -0.7 C 0 km/h
288 29-12-2010 09:36:01 -0.7 C 3.88 g/m*3 -0.7 C 0 km/h
289 29-12-2010 09:48:01 -0.5 C 3.84 g/m*3 -0.5 C 0 km/h
290 29-12-2010 10:00:01 -0.2 C 3.87 g/m*3 -0.2 C 0 km/h
291 29-12-2010 10:12:02 0 C 3.78 g/m*3 0 C 0 km/h
292 29-12-2010 10:24:01 0.2 C 3.73 g/m*3 0.2 C 0 km/h
293 29-12-2010 10:36:01 0.3 C 3.71 g/m*3 0.3 C 0 km/h
294 29-12-2010 10:48:01 0.4 C 3.64 g/m*3 0.4 C 0 km/h
295 29-12-2010 11:00:01 0.4 C 3.64 g/m*3 0.4 C 0 km/h
296 29-12-2010 11:12:02 0.6 C 3.64 g/m*3 0.6 C 0 km/h
297 29-12-2010 11:24:01 0.6 C 3.59 g/m*3 0.6 C 0 km/h
298 29-12-2010 11:36:01 0.7 C 3.61 g/m*3 0.7 C 0 km/h
299 29-12-2010 11:48:01 0.6 C 3.53 g/m*3 0.6 C 0 km/h
300 29-12-2010 12:00:01 0.9 C 3.66 g/m*3 0.9 C 0 km/h
Sensor: Nr:Datum:Temp:Abs-Feuchte:Windchill:Wind:
Aussen-T/F 301 29-12-2010 12:12:01 0.9 C 3.61 g/m*3 0.9 C 0 km/h
302 29-12-2010 12:24:02 0.7 C 3.56 g/m*3 0.7 C 0 km/h
303 29-12-2010 12:36:01 1 C 3.53 g/m*3 1 C 0 km/h
304 29-12-2010 12:48:03 0.9 C 3.56 g/m*3 0.9 C 0 km/h
305 29-12-2010 13:00:03 1.3 C 3.66 g/m*3 1.3 C 0 km/h
306 29-12-2010 13:12:02 1.2 C 3.58 g/m*3 1.2 C 0 km/h
307 29-12-2010 13:24:02 1.4 C 3.63 g/m*3 1.4 C 0 km/h
308 29-12-2010 13:36:02 1.5 C 3.6 g/m*3 1.5 C 0 km/h
309 29-12-2010 13:48:02 1.3 C 3.6 g/m*3 1.3 C 0 km/h
310 29-12-2010 14:00:02 1.6 C 3.68 g/m*3 1.6 C 0 km/h
311 29-12-2010 14:12:01 1.7 C 3.65 g/m*3 1.7 C 0 km/h
312 29-12-2010 14:24:02 1.7 C 3.65 g/m*3 1.7 C 0 km/h
313 29-12-2010 14:36:02 2.1 C 3.69 g/m*3 2.1 C 0 km/h
314 29-12-2010 14:48:01 1.7 C 3.65 g/m*3 1.7 C 0 km/h
315 29-12-2010 15:00:01 1.3 C 3.66 g/m*3 1.3 C 0 km/h
316 29-12-2010 15:12:02 1.3 C 3.71 g/m*3 1.3 C 0 km/h
317 29-12-2010 15:24:01 1.2 C 3.74 g/m*3 1.2 C 0 km/h
318 29-12-2010 15:36:01 1.1 C 3.76 g/m*3 1.1 C 0 km/h
319 29-12-2010 15:48:01 1 C 3.79 g/m*3 1 C 0 km/h
320 29-12-2010 16:00:01 0.8 C 3.84 g/m*3 0.8 C 0 km/h
321 29-12-2010 16:12:02 0.7 C 3.81 g/m*3 0.7 C 0 km/h
322 29-12-2010 16:24:01 0.6 C 3.89 g/m*3 0.6 C 0 km/h
323 29-12-2010 16:36:02 0.5 C 3.86 g/m*3 0.5 C 0 km/h
324 29-12-2010 16:48:01 0.5 C 3.86 g/m*3 0.5 C 0 km/h
325 29-12-2010 17:00:01 0.4 C 3.84 g/m*3 0.4 C 0 km/h
Sensor: Nr:Datum:Temp:Abs-Feuchte:Windchill:Wind:
Aussen-T/F 326 29-12-2010 17:12:02 0.3 C 3.81 g/m*3 0.3 C 0 km/h
327 29-12-2010 17:24:01 0.3 C 3.86 g/m*3 0.3 C 0 km/h
328 29-12-2010 17:36:02 0.2 C 3.88 g/m*3 0.2 C 0 km/h
329 29-12-2010 17:48:01 0.2 C 3.88 g/m*3 0.2 C 0 km/h
330 29-12-2010 18:00:01 0.2 C 3.88 g/m*3 0.2 C 0 km/h
331 29-12-2010 18:12:02 0.2 C 3.88 g/m*3 0.2 C 0 km/h
332 29-12-2010 18:24:02 0.1 C 3.85 g/m*3 0.1 C 0 km/h
333 29-12-2010 18:36:01 0.1 C 3.9 g/m*3 0.1 C 0 km/h
334 29-12-2010 18:48:02 0.1 C 3.95 g/m*3 0.1 C 0 km/h
335 29-12-2010 19:00:02 0.1 C 3.95 g/m*3 0.1 C 0 km/h
336 29-12-2010 19:12:01 0.1 C 3.95 g/m*3 0.1 C 0 km/h
337 29-12-2010 19:24:02 0.1 C 4 g/m*3 0.1 C 0 km/h
338 29-12-2010 19:36:01 0 C 3.97 g/m*3 0 C 0 km/h
339 29-12-2010 19:48:02 0 C 3.97 g/m*3 0 C 0 km/h
340 29-12-2010 20:00:02 0 C 3.97 g/m*3 0 C 0 km/h
341 29-12-2010 20:12:01 0 C 3.97 g/m*3 0 C 0 km/h
342 29-12-2010 20:24:01 0 C 3.97 g/m*3 0 C 0 km/h
343 29-12-2010 20:36:01 -0.1 C 3.95 g/m*3 -0.1 C 0 km/h
344 29-12-2010 20:48:02 -0.1 C 3.95 g/m*3 -0.1 C 0 km/h
345 29-12-2010 21:00:02 -0.1 C 3.95 g/m*3 -0.1 C 0 km/h
346 29-12-2010 21:12:02 -0.2 C 3.92 g/m*3 -0.2 C 0 km/h
347 29-12-2010 21:24:02 -0.2 C 3.92 g/m*3 -0.2 C 0 km/h
348 29-12-2010 21:36:02 -0.2 C 3.92 g/m*3 -0.2 C 0 km/h
349 29-12-2010 21:48:01 -0.2 C 3.92 g/m*3 -0.2 C 0 km/h
350 29-12-2010 22:00:01 -0.2 C 3.92 g/m*3 -0.2 C 0 km/h
Sensor: Nr:Datum:Temp:Abs-Feuchte:Windchill:Wind:
Aussen-T/F 351 29-12-2010 22:12:02 -0.3 C 3.89 g/m*3 -0.3 C 0 km/h
352 29-12-2010 22:24:01 -0.3 C 3.84 g/m*3 -0.3 C 0 km/h
353 29-12-2010 22:36:01 -0.3 C 3.8 g/m*3 -0.3 C 0 km/h
354 29-12-2010 22:48:01 -0.5 C 3.74 g/m*3 -0.5 C 0 km/h
355 29-12-2010 23:00:01 -0.6 C 3.76 g/m*3 -0.6 C 0 km/h
356 29-12-2010 23:12:02 -0.6 C 3.81 g/m*3 -0.6 C 0 km/h
357 29-12-2010 23:24:02 -0.7 C 3.78 g/m*3 -0.7 C 0 km/h
358 29-12-2010 23:36:01 -0.7 C 3.83 g/m*3 -0.7 C 0 km/h
359 29-12-2010 23:49:59 -0.9 C 3.78 g/m*3 -0.9 C 0 km/h

Legende:
   Min
   Max


Maximal/Minimal-Werte vom 27.12.2010 - 29.12.2010

Sensor Min Max Avg
Temp
(Aussen-T/F)
-4.9 °C
27-12-2010  23:59:03
2.1 °C
29-12-2010  14:36:02
-1.52 °C
Abs-Feuchte
(Aussen-T/F)
2.95 g/m*3
27-12-2010  23:59:03
4 g/m*3
29-12-2010  19:24:02
3.44 g/m*3
Windchill
(Aussen-T/F)
-4.9 C
27-12-2010  23:59:03
2.1 C
29-12-2010  14:36:02
-1.51 C

Die Daten stammen von einer Davis Vantage Pro 2 Wetter-Station und werden unter Linux mit der Software wview2wettercgi und aufbereitet. Alle Angaben erfolgen ohne Gewähr für ihre Vollständigkeit oder Richtigkeit.
Kontakt: Rainer Krienke krienke@uni-koblenz.de . Meine Webseiten an der Uni Koblenz oder privat.
Version: $Revision: 0.78 $